createdAt,value
2023-02-05T00:01:28.240Z,101691.72
2023-02-05T00:06:31.024Z,101687.50
2023-02-05T00:11:33.901Z,101683.69
2023-02-05T00:16:36.710Z,101664.94
2023-02-05T00:21:39.668Z,101690.56
2023-02-05T00:26:42.499Z,101696.16
2023-02-05T00:31:48.030Z,101660.22
2023-02-05T00:36:50.766Z,101696.09
2023-02-05T00:41:53.638Z,101698.34
2023-02-05T00:46:56.484Z,101689.44
2023-02-05T00:51:59.140Z,101695.84
2023-02-05T00:57:01.982Z,101700.25
2023-02-05T01:02:04.663Z,101692.34
2023-02-05T01:07:07.530Z,101706.78
2023-02-05T01:12:10.182Z,101698.53
2023-02-05T01:17:12.884Z,101659.31
2023-02-05T01:22:16.415Z,101709.22
2023-02-05T01:27:19.376Z,101714.31
2023-02-05T01:32:22.567Z,101707.88
2023-02-05T01:37:25.616Z,101695.84
2023-02-05T01:42:30.556Z,101711.34
2023-02-05T01:47:33.303Z,101718.41
2023-02-05T01:52:36.050Z,101724.38
2023-02-05T01:57:39.122Z,101721.13
2023-02-05T02:02:41.912Z,101733.75
2023-02-05T02:07:44.649Z,101727.16
2023-02-05T02:12:48.361Z,101722.94
2023-02-05T02:17:57.124Z,101715.69
2023-02-05T02:23:37.470Z,101731.44
2023-02-05T02:28:53.198Z,101730.28
2023-02-05T02:34:15.157Z,101722.88
2023-02-05T02:39:25.538Z,101727.47
2023-02-05T02:45:07.529Z,101742.47
2023-02-05T02:50:21.156Z,101744.66
2023-02-05T02:55:24.917Z,101749.53
2023-02-05T03:00:29.929Z,101765.06
2023-02-05T03:05:35.323Z,101758.16
2023-02-05T03:11:00.226Z,101761.97
2023-02-05T03:16:04.855Z,101751.22
2023-02-05T03:21:28.799Z,101750.16
2023-02-05T03:26:35.493Z,101756.03
2023-02-05T03:31:48.525Z,101761.88
2023-02-05T03:37:29.884Z,101763.31
2023-02-05T03:42:54.089Z,101756.75
2023-02-05T03:48:03.584Z,101755.72
2023-02-05T03:53:36.844Z,101750.19
2023-02-05T03:58:44.540Z,101760.31
2023-02-05T04:03:47.307Z,101755.94
2023-02-05T04:08:50.533Z,101756.28
2023-02-05T04:13:53.239Z,101767.69
2023-02-05T04:18:56.395Z,101768.44
2023-02-05T04:24:00.280Z,101758.75
2023-02-05T04:29:03.773Z,101761.94
2023-02-05T04:34:09.719Z,101764.84
2023-02-05T04:39:13.918Z,101759.38
2023-02-05T04:44:17.333Z,101771.91
2023-02-05T04:49:20.754Z,101770.63
2023-02-05T04:54:23.511Z,101750.84
2023-02-05T04:59:26.686Z,101758.72
2023-02-05T05:04:29.389Z,101773.47
2023-02-05T05:09:32.055Z,101779.28
2023-02-05T05:14:35.143Z,101743.00
2023-02-05T05:19:37.649Z,101776.22
2023-02-05T05:24:40.502Z,101767.75
2023-02-05T05:29:43.386Z,101757.47
2023-02-05T05:34:46.119Z,101770.13
2023-02-05T05:40:07.174Z,101757.16
2023-02-05T05:45:10.052Z,101738.25
2023-02-05T05:50:12.962Z,101758.34
2023-02-05T05:55:15.717Z,101772.59
2023-02-05T06:00:18.698Z,101759.22
2023-02-05T06:05:21.446Z,101716.88
2023-02-05T06:10:24.511Z,101741.56
2023-02-05T06:15:27.393Z,101746.19
2023-02-05T06:20:30.065Z,101759.56
2023-02-05T06:25:33.160Z,101751.91
2023-02-05T06:30:36.082Z,101738.06
2023-02-05T06:35:39.830Z,101744.72
2023-02-05T06:40:42.506Z,101744.19
2023-02-05T06:45:45.291Z,101733.25
2023-02-05T06:50:48.042Z,101745.91
2023-02-05T06:55:50.651Z,101742.28
2023-02-05T07:00:53.392Z,101748.47
2023-02-05T07:05:56.146Z,101743.53
2023-02-05T07:10:58.991Z,101739.19
2023-02-05T07:16:05.713Z,101750.47
2023-02-05T07:21:10.697Z,101752.69
2023-02-05T07:26:17.294Z,101755.75
2023-02-05T07:31:20.864Z,101751.59
2023-02-05T07:36:23.687Z,101737.13
2023-02-05T07:41:28.961Z,101742.34
2023-02-05T07:46:31.735Z,101737.31
2023-02-05T07:51:35.395Z,101736.28
2023-02-05T07:56:38.558Z,101728.75
2023-02-05T08:01:41.276Z,101728.38
2023-02-05T08:06:44.157Z,101723.13
2023-02-05T08:11:46.941Z,101721.13
2023-02-05T08:16:49.622Z,101707.13
2023-02-05T08:21:52.909Z,101717.66
2023-02-05T08:26:55.626Z,101732.38
2023-02-05T08:31:58.559Z,101733.41
2023-02-05T08:37:01.597Z,101735.81
2023-02-05T08:42:04.796Z,101739.28
2023-02-05T08:47:07.577Z,101741.78
2023-02-05T08:52:10.249Z,101744.94
2023-02-05T08:57:13.148Z,101743.88
2023-02-05T09:02:16.262Z,101748.66
2023-02-05T09:07:18.990Z,101760.88
2023-02-05T09:12:21.704Z,101751.44
2023-02-05T09:17:24.581Z,101756.25
2023-02-05T09:22:27.359Z,101752.81
2023-02-05T09:27:30.848Z,101721.09
2023-02-05T09:32:33.588Z,101752.03
2023-02-05T09:37:36.511Z,101756.84
2023-02-05T09:42:49.618Z,101755.63
2023-02-05T09:48:04.192Z,101749.03
2023-02-05T09:53:12.774Z,101735.28
2023-02-05T09:58:38.249Z,101737.25
2023-02-05T10:03:50.487Z,101745.97
2023-02-05T10:09:09.657Z,101745.56
2023-02-05T10:14:27.519Z,101744.25
2023-02-05T10:20:08.161Z,101749.09
2023-02-05T10:25:22.770Z,101745.47
2023-02-05T10:30:41.146Z,101740.22
2023-02-05T10:35:50.344Z,101743.38
2023-02-05T10:41:00.640Z,101734.63
2023-02-05T10:46:05.669Z,101738.28
2023-02-05T10:51:15.187Z,101732.75
2023-02-05T10:56:18.915Z,101736.03
2023-02-05T11:01:25.021Z,101742.31
2023-02-05T11:06:32.353Z,101753.75
2023-02-05T11:11:35.219Z,101754.50
2023-02-05T11:16:41.955Z,101755.28
2023-02-05T11:21:53.566Z,101754.69
2023-02-05T11:27:17.666Z,101751.59
2023-02-05T11:32:39.607Z,101747.56
2023-02-05T11:37:42.382Z,101744.09
2023-02-05T11:42:49.163Z,101750.63
2023-02-05T11:47:51.980Z,101765.09
2023-02-05T11:52:56.257Z,101759.19
2023-02-05T11:58:31.555Z,101767.88
2023-02-05T12:03:38.585Z,101768.09
2023-02-05T12:08:48.925Z,101762.69
2023-02-05T12:14:06.577Z,101761.59
2023-02-05T12:19:34.787Z,101769.97
2023-02-05T12:24:52.675Z,101765.59
2023-02-05T12:30:10.195Z,101770.09
2023-02-05T12:35:32.336Z,101759.22
2023-02-05T12:40:57.775Z,101763.88
2023-02-05T12:46:15.642Z,101754.38
2023-02-05T12:51:25.865Z,101762.53
2023-02-05T12:56:37.394Z,101760.56
2023-02-05T13:01:44.845Z,101763.00
2023-02-05T13:06:55.918Z,101758.50
2023-02-05T13:12:01.974Z,101747.13
2023-02-05T13:17:18.477Z,101751.84
2023-02-05T13:22:56.838Z,101764.22
2023-02-05T13:28:20.846Z,101761.13
2023-02-05T13:33:23.595Z,101762.13
2023-02-05T13:39:01.247Z,101764.72
2023-02-05T13:44:26.494Z,101774.59
2023-02-05T13:50:10.746Z,101767.56
2023-02-05T13:55:21.788Z,101772.97
2023-02-05T14:00:25.517Z,101764.97
2023-02-05T14:05:30.738Z,101769.94
2023-02-05T14:10:36.458Z,101774.91
2023-02-05T14:15:42.278Z,101773.59
2023-02-05T14:20:46.060Z,101761.84
2023-02-05T14:26:04.148Z,101766.78
2023-02-05T14:31:07.893Z,101771.25
2023-02-05T14:36:23.165Z,101765.28
2023-02-05T14:41:46.308Z,101767.59
2023-02-05T14:47:02.864Z,101749.31
2023-02-05T14:52:39.110Z,101755.41
2023-02-05T14:57:59.588Z,101745.19
2023-02-05T15:03:05.444Z,101743.63
2023-02-05T15:08:29.549Z,101747.69
2023-02-05T15:13:32.989Z,101743.25
2023-02-05T15:18:56.574Z,101743.28
2023-02-05T15:24:24.438Z,101744.19
2023-02-05T15:29:45.952Z,101724.59
2023-02-05T15:35:00.827Z,101738.88
2023-02-05T15:40:25.165Z,101745.13
2023-02-05T15:45:40.159Z,101746.94
2023-02-05T15:50:49.218Z,101747.41
2023-02-05T15:55:52.158Z,101758.34
2023-02-05T16:00:56.685Z,101753.25
2023-02-05T16:05:59.952Z,101747.69
2023-02-05T16:11:05.667Z,101760.44
2023-02-05T16:16:12.313Z,101744.00
2023-02-05T16:21:21.856Z,101758.91
2023-02-05T16:26:28.626Z,101763.41
2023-02-05T16:31:32.674Z,101773.72
2023-02-05T16:36:39.282Z,101772.16
2023-02-05T16:41:43.109Z,101781.56
2023-02-05T16:46:46.030Z,101782.44
2023-02-05T16:51:48.630Z,101782.91
2023-02-05T16:56:54.210Z,101782.66
2023-02-05T17:01:57.020Z,101755.47
2023-02-05T17:07:02.858Z,101794.50
2023-02-05T17:12:20.810Z,101792.72
2023-02-05T17:17:25.549Z,101778.22
2023-02-05T17:22:28.785Z,101779.97
2023-02-05T17:27:36.776Z,101773.53
2023-02-05T17:32:39.476Z,101770.84
2023-02-05T17:37:42.095Z,101759.72
2023-02-05T17:42:46.382Z,101776.63
2023-02-05T17:47:49.966Z,101766.38
2023-02-05T17:52:54.892Z,101777.06
2023-02-05T17:57:57.894Z,101788.66
2023-02-05T18:03:00.572Z,101789.13
2023-02-05T18:08:04.759Z,101770.16
2023-02-05T18:13:07.484Z,101784.63
2023-02-05T18:18:10.583Z,101793.13
2023-02-05T18:23:28.386Z,101792.22
2023-02-05T18:28:32.186Z,101777.25
2023-02-05T18:33:35.324Z,101778.59
2023-02-05T18:38:39.057Z,101781.03
2023-02-05T18:43:42.396Z,101761.19
2023-02-05T18:48:49.661Z,101757.38
2023-02-05T18:53:52.954Z,101757.38
2023-02-05T18:59:06.374Z,101762.47
2023-02-05T19:04:12.726Z,101762.88
2023-02-05T19:09:15.421Z,101752.38
2023-02-05T19:14:20.348Z,101749.69
2023-02-05T19:19:25.698Z,101751.88
2023-02-05T19:24:29.216Z,101760.75
2023-02-05T19:29:35.328Z,101762.06
2023-02-05T19:34:43.552Z,101747.78
2023-02-05T19:39:46.698Z,101738.19
2023-02-05T19:44:49.223Z,101754.66
2023-02-05T19:49:51.911Z,101745.56
2023-02-05T19:54:54.950Z,101749.06
2023-02-05T19:59:57.635Z,101752.59
2023-02-05T20:05:00.586Z,101748.16
2023-02-05T20:10:03.379Z,101733.84
2023-02-05T20:15:06.541Z,101736.94
2023-02-05T20:20:14.122Z,101736.84
2023-02-05T20:25:21.551Z,101733.66
2023-02-05T20:30:42.544Z,101734.97
2023-02-05T20:35:45.401Z,101733.06
2023-02-05T20:40:48.050Z,101729.22
2023-02-05T20:45:50.792Z,101720.94
2023-02-05T20:50:53.392Z,101715.13
2023-02-05T20:56:07.881Z,101697.28
2023-02-05T21:01:22.750Z,101703.31
2023-02-05T21:06:26.677Z,101690.66
2023-02-05T21:11:30.000Z,101697.97
2023-02-05T21:16:34.693Z,101693.75
2023-02-05T21:21:38.059Z,101693.09
2023-02-05T21:26:43.372Z,101694.66
2023-02-05T21:31:53.352Z,101684.38
2023-02-05T21:36:56.526Z,101685.25
2023-02-05T21:41:59.372Z,101679.91
2023-02-05T21:47:02.029Z,101690.31
2023-02-05T21:52:04.750Z,101700.31
2023-02-05T21:57:08.712Z,101692.03
2023-02-05T22:02:12.498Z,101691.25
2023-02-05T22:07:15.201Z,101688.13
2023-02-05T22:12:18.309Z,101678.50
2023-02-05T22:17:20.989Z,101687.13
2023-02-05T22:22:23.685Z,101682.88
2023-02-05T22:27:27.435Z,101665.34
2023-02-05T22:32:30.183Z,101670.50
2023-02-05T22:37:32.842Z,101667.59
2023-02-05T22:42:35.541Z,101659.31
2023-02-05T22:47:38.245Z,101663.72
2023-02-05T22:52:40.883Z,101668.06
2023-02-05T22:57:44.446Z,101658.25
2023-02-05T23:02:47.158Z,101667.34
2023-02-05T23:07:50.866Z,101645.53
2023-02-05T23:12:53.601Z,101642.94
2023-02-05T23:17:56.313Z,101642.78
2023-02-05T23:22:58.990Z,101640.69
2023-02-05T23:28:01.724Z,101628.13
2023-02-05T23:33:04.243Z,101643.00
2023-02-05T23:38:07.072Z,101620.31
2023-02-05T23:43:09.803Z,101634.56
2023-02-05T23:48:12.566Z,101657.84
2023-02-05T23:53:15.110Z,101655.81
2023-02-05T23:58:19.215Z,101652.44
